Flood From: 18-02-2018 16:00 Until: 19-02-2018 16:00 warning for: Flood Level: Yellow info button

Although rather usual in this region, locally or potentially dangerous phenomena are expected. (such as local winds, summer thunderstorms, rising streams or high waves) Be aware and pay attention to the latest weather updates, especially if you carry out activities exposed to weather or close to a stream or shoreline. 


Meteo18 Weather Cam more information Meteo18 Weather Cam


Thunder radar more information blitzortung!


Rain radar more information rain snow radar


Visit our other weather sites:

Template documentation
and downloads

And another site



Weather Underground History page Text

Daily Summary for December 26, 2017 Units:  English    Metric   Both
« Previous Day
Next Day »
Daily Weekly Monthly Yearly Custom
  High: Low: Average:
Temperature: TemperatureC °F 1.2 °F 6.1 °F
Dew Point: DewpointC °F 0.8 °F 3.8 °F
Humidity: Humidity % 79 % 85 %
Wind Speed: WindSpeedKMH mph 1.6 mph 14 mph
Wind Gust: WindSpeedGustKMH mph - -
Wind:- - SSW
Pressure: PressurehPa in 993.8 in -
Precipitation: 0.5 in    
Historical Graphs
 
 
Tabular Data for December 26, 2017
Time Temperature Dew Point Pressure Wind Wind Speed Wind Gust Humidity Rainfall Rate (Hourly)
TemperatureC °F DewpointC °F PressurehPa in Calm     Humidity % HourlyPrecipMM in
00:02 1.2 °F 0.8 °F 1011.4 in South 1.6 mph 6.4 mph 97 % 0.0 in
00:12 1.6 °F 1.2 °F 1011.4 in SSW 1.6 mph 6.4 mph 97 % 0.0 in
00:17 1.7 °F 1.3 °F 1011.4 in SSE 1.6 mph 9.7 mph 97 % 0.0 in
00:22 1.7 °F 1.3 °F 1011.4 in SSW 1.6 mph 9.7 mph 97 % 0.0 in
00:32 1.9 °F 1.3 °F 1011.1 in South 3.2 mph 9.7 mph 96 % 0.0 in
00:42 2.1 °F 1.4 °F 1011.1 in South 3.2 mph 6.4 mph 95 % 0.0 in
00:47 2.2 °F 1.5 °F 1011.1 in SSW 3.2 mph 8.0 mph 95 % 0.0 in
00:52 2.2 °F 1.3 °F 1010.7 in South 4.8 mph 8.0 mph 94 % 0.0 in
00:57 2.2 °F 1.3 °F 1010.7 in SW 4.8 mph 8.0 mph 94 % 0.0 in
01:02 2.3 °F 1.4 °F 1010.4 in South 6.4 mph 6.4 mph 94 % 0.0 in
01:12 2.5 °F 1.5 °F 1010.4 in SW 6.4 mph 8.0 mph 93 % 0.0 in
01:17 2.6 °F 1.4 °F 1010.4 in SW 6.4 mph 9.7 mph 92 % 0.0 in
01:27 3.0 °F 1.7 °F 1010.0 in WSW 3.2 mph 9.7 mph 91 % 0.0 in
01:32 3.0 °F 1.5 °F 1010.0 in South 9.7 mph 12.9 mph 90 % 0.0 in
01:37 3.0 °F 1.5 °F 1010.0 in SSW 9.7 mph 12.9 mph 90 % 0.0 in
01:42 3.1 °F 1.6 °F 1010.0 in SSW 4.8 mph 12.9 mph 90 % 0.0 in
01:47 3.1 °F 1.6 °F 1010.0 in SSW 4.8 mph 12.9 mph 90 % 0.0 in
01:52 3.2 °F 1.7 °F 1009.7 in SW 3.2 mph 9.7 mph 90 % 0.0 in
01:57 3.2 °F 1.7 °F 1009.7 in SW 4.8 mph 11.3 mph 90 % 0.0 in
02:02 3.4 °F 1.8 °F 1009.7 in SSW 6.4 mph 11.3 mph 89 % 0.0 in
02:12 4.3 °F 2.3 °F 1009.4 in SSE 11.3 mph 11.3 mph 87 % 0.0 in
02:17 4.5 °F 2.4 °F 1009.4 in SW 12.9 mph 19.3 mph 86 % 0.0 in
02:22 4.6 °F 2.3 °F 1009.4 in South 6.4 mph 19.3 mph 85 % 0.0 in
02:32 4.6 °F 2.3 °F 1009.4 in South 3.2 mph 22.5 mph 85 % 0.0 in
02:37 4.5 °F 2.2 °F 1009.4 in South 3.2 mph 17.7 mph 85 % 0.0 in
02:42 4.4 °F 2.1 °F 1009.0 in SSE 4.8 mph 17.7 mph 85 % 0.0 in
02:47 4.3 °F 2.2 °F 1009.0 in SSW 4.8 mph 14.5 mph 86 % 0.0 in
02:52 4.3 °F 2.2 °F 1009.0 in South 4.8 mph 14.5 mph 86 % 0.0 in
02:57 4.3 °F 2.2 °F 1008.7 in South 3.2 mph 14.5 mph 86 % 0.0 in
03:02 4.3 °F 2.2 °F 1008.7 in SW 6.4 mph 14.5 mph 86 % 0.0 in
03:07 4.4 °F 2.3 °F 1008.7 in South 11.3 mph 11.3 mph 86 % 0.0 in
03:12 4.6 °F 2.5 °F 1008.4 in SSW 8.0 mph 11.3 mph 86 % 0.0 in
03:17 4.7 °F 2.6 °F 1008.4 in South 8.0 mph 16.1 mph 86 % 0.0 in
03:22 4.9 °F 2.8 °F 1008.4 in SSE 6.4 mph 16.1 mph 86 % 0.0 in
03:32 5.4 °F 3.1 °F 1008.0 in South 8.0 mph 16.1 mph 85 % 0.0 in
03:37 5.7 °F 3.2 °F 1007.7 in SSE 8.0 mph 20.9 mph 84 % 0.0 in
03:52 6.7 °F 4.0 °F 1007.3 in South 12.9 mph 24.1 mph 83 % 0.0 in
03:57 6.9 °F 4.0 °F 1007.3 in South 11.3 mph 24.1 mph 82 % 0.0 in
04:02 7.2 °F 4.3 °F 1007.0 in SW 11.3 mph 27.4 mph 82 % 0.0 in
04:12 7.6 °F 4.5 °F 1007.0 in SSW 20.9 mph 27.4 mph 81 % 0.0 in
04:18 7.6 °F 4.5 °F 1007.0 in SSE 11.3 mph 32.2 mph 81 % 0.0 in
04:27 7.9 °F 4.7 °F 1007.0 in SSW 16.1 mph 32.2 mph 80 % 0.0 in
04:32 8.0 °F 4.8 °F 1007.0 in South 24.1 mph 32.2 mph 80 % 0.0 in
04:37 8.2 °F 4.8 °F 1007.0 in SW 33.8 mph 33.8 mph 79 % 0.0 in
04:42 8.2 °F 5.0 °F 1007.0 in SW 43.4 mph 45.1 mph 80 % 0.0 in
04:47 8.2 °F 5.1 °F 1006.7 in SSW 22.5 mph 48.3 mph 81 % 0.0 in
04:52 8.3 °F 5.1 °F 1006.7 in SSW 48.3 mph 48.3 mph 80 % 0.0 in
04:57 8.5 °F 5.2 °F 1006.7 in WSW 40.2 mph 48.3 mph 80 % 0.0 in
05:02 8.5 °F 5.2 °F 1006.3 in SW 32.2 mph 61.1 mph 80 % 0.0 in
05:12 8.5 °F 5.4 °F 1006.3 in SW 32.2 mph 53.1 mph 81 % 0.0 in
05:17 8.5 °F 5.4 °F 1006.3 in SW 43.4 mph 53.1 mph 81 % 0.0 in
05:22 8.7 °F 5.4 °F 1006.3 in WSW 49.9 mph 66.0 mph 80 % 0.3 in
05:32 8.4 °F 5.5 °F 1006.3 in SW 41.8 mph 66.0 mph 82 % 0.3 in
05:42 8.1 °F 5.4 °F 1006.3 in West 24.1 mph 62.8 mph 83 % 0.3 in
05:52 7.7 °F 5.0 °F 1006.3 in WSW 35.4 mph 62.8 mph 83 % 0.3 in
05:57 7.5 °F 5.0 °F 1006.7 in SW 22.5 mph 62.8 mph 84 % 0.3 in
06:02 7.2 °F 5.0 °F 1006.7 in SW 59.5 mph 62.8 mph 86 % 0.3 in
06:07 7.1 °F 4.9 °F 1006.7 in WSW 41.8 mph 62.8 mph 86 % 0.3 in
06:17 6.6 °F 4.8 °F 1007.3 in SW 30.6 mph 61.1 mph 88 % 0.3 in
06:22 6.5 °F 4.7 °F 1007.3 in West 35.4 mph 57.9 mph 88 % 0.0 in
06:27 6.4 °F 4.6 °F 1007.3 in SW 35.4 mph 57.9 mph 88 % 0.0 in
06:32 6.5 °F 4.5 °F 1007.7 in SW 43.4 mph 57.9 mph 87 % 0.0 in
06:37 6.6 °F 4.6 °F 1007.7 in WNW 16.1 mph 56.3 mph 87 % 0.0 in
06:42 6.6 °F 4.4 °F 1008.0 in WSW 37.0 mph 56.3 mph 86 % 0.0 in
06:47 6.7 °F 4.4 °F 1008.4 in WSW 43.4 mph 56.3 mph 85 % 0.0 in
06:52 6.6 °F 4.4 °F 1008.7 in West 37.0 mph 64.4 mph 86 % 0.0 in
07:02 6.3 °F 4.1 °F 1009.4 in West 25.7 mph 64.4 mph 86 % 0.0 in
07:07 6.2 °F 4.2 °F 1009.4 in WSW 20.9 mph 64.4 mph 87 % 0.0 in
07:12 6.1 °F 4.1 °F 1009.4 in WSW 40.2 mph 61.1 mph 87 % 0.0 in
07:17 5.9 °F 4.1 °F 1010.0 in West 37.0 mph 61.1 mph 88 % 0.0 in
07:27 5.6 °F 4.1 °F 1010.4 in WNW 17.7 mph 57.9 mph 90 % 0.0 in
07:32 5.6 °F 4.1 °F 1010.4 in WSW 19.3 mph 57.9 mph 90 % 0.0 in
07:42 5.6 °F 4.1 °F 1011.1 in West 22.5 mph 41.8 mph 90 % 0.0 in
07:52 5.5 °F 4.0 °F 1011.1 in WSW 16.1 mph 40.2 mph 90 % 0.0 in
07:57 5.4 °F 3.9 °F 1011.4 in WSW 22.5 mph 40.2 mph 90 % 0.0 in
08:02 5.4 °F 3.9 °F 1011.4 in WSW 25.7 mph 33.8 mph 90 % 0.0 in
08:12 5.4 °F 3.6 °F 1011.7 in West 17.7 mph 33.8 mph 88 % 0.0 in
08:22 5.4 °F 3.6 °F 1011.7 in WSW 14.5 mph 30.6 mph 88 % 0.0 in
08:32 5.3 °F 3.5 °F 1012.1 in SW 12.9 mph 30.6 mph 88 % 0.0 in
08:42 5.2 °F 3.4 °F 1012.4 in WSW 12.9 mph 30.6 mph 88 % 0.0 in
08:47 5.2 °F 3.4 °F 1012.1 in SW 9.7 mph 30.6 mph 88 % 0.0 in
08:52 5.2 °F 3.4 °F 1012.4 in WSW 8.0 mph 25.7 mph 88 % 0.0 in
08:57 5.1 °F 3.3 °F 1012.4 in SW 11.3 mph 25.7 mph 88 % 0.0 in
09:02 5.1 °F 3.3 °F 1012.4 in SW 16.1 mph 25.7 mph 88 % 0.0 in
09:12 5.1 °F 3.3 °F 1012.8 in WNW 17.7 mph 27.4 mph 88 % 0.0 in
09:17 5.1 °F 3.3 °F 1012.8 in SW 11.3 mph 27.4 mph 88 % 0.0 in
09:27 5.1 °F 3.3 °F 1012.8 in West 9.7 mph 27.4 mph 88 % 0.0 in
09:37 5.1 °F 3.3 °F 1012.8 in SSW 9.7 mph 27.4 mph 88 % 0.0 in
09:47 5.1 °F 3.3 °F 1012.8 in SW 12.9 mph 22.5 mph 88 % 0.0 in
09:57 5.3 °F 3.5 °F 1013.1 in WSW 19.3 mph 25.7 mph 88 % 0.0 in
10:02 5.3 °F 3.5 °F 1012.8 in SW 11.3 mph 25.7 mph 88 % 0.0 in
10:12 5.5 °F 3.7 °F 1012.8 in SW 14.5 mph 24.1 mph 88 % 0.0 in
10:17 5.6 °F 3.8 °F 1012.8 in SSW 12.9 mph 24.1 mph 88 % 0.0 in
10:22 5.7 °F 3.9 °F 1012.8 in SSW 8.0 mph 22.5 mph 88 % 0.0 in
10:32 5.6 °F 3.8 °F 1012.8 in SW 14.5 mph 22.5 mph 88 % 0.0 in
10:42 5.7 °F 3.9 °F 1012.8 in WSW 16.1 mph 22.5 mph 88 % 0.0 in
10:47 5.8 °F 4.0 °F 1012.8 in SW 14.5 mph 22.5 mph 88 % 0.0 in
10:57 6.0 °F 4.2 °F 1012.8 in SW 17.7 mph 24.1 mph 88 % 0.0 in
11:02 6.2 °F 4.2 °F 1012.8 in WSW 9.7 mph 22.5 mph 87 % 0.0 in
11:12 6.5 °F 4.3 °F 1012.8 in SW 11.3 mph 22.5 mph 86 % 0.0 in
11:17 6.6 °F 4.4 °F 1012.8 in SW 9.7 mph 22.5 mph 86 % 0.0 in
11:22 6.7 °F 4.4 °F 1012.8 in SW 16.1 mph 25.7 mph 85 % 0.0 in
11:32 6.7 °F 4.7 °F 1012.4 in SSW 14.5 mph 27.4 mph 87 % 0.0 in
11:37 6.7 °F 4.7 °F 1012.4 in SSW 12.9 mph 27.4 mph 87 % 0.0 in
11:42 6.8 °F 4.8 °F 1012.4 in SW 22.5 mph 25.7 mph 87 % 0.0 in
11:52 6.9 °F 4.6 °F 1012.1 in WSW 19.3 mph 25.7 mph 85 % 0.0 in
12:02 7.2 °F 4.8 °F 1011.7 in WSW 14.5 mph 32.2 mph 85 % 0.0 in
12:12 7.3 °F 4.8 °F 1011.7 in SW 11.3 mph 32.2 mph 84 % 0.0 in
12:17 7.3 °F 4.6 °F 1011.7 in SW 17.7 mph 32.2 mph 83 % 0.0 in
12:22 7.4 °F 4.7 °F 1011.7 in SW 14.5 mph 30.6 mph 83 % 0.0 in
12:32 7.5 °F 4.6 °F 1011.4 in WSW 19.3 mph 30.6 mph 82 % 0.0 in
12:42 7.7 °F 4.6 °F 1011.4 in WSW 22.5 mph 29.0 mph 81 % 0.0 in
12:47 7.9 °F 5.0 °F 1011.4 in SW 17.7 mph 29.0 mph 82 % 0.0 in
12:52 7.9 °F 5.0 °F 1011.1 in SW 22.5 mph 29.0 mph 82 % 0.0 in
12:57 8.0 °F 4.9 °F 1011.1 in SSW 16.1 mph 29.0 mph 81 % 0.0 in
13:02 7.9 °F 4.8 °F 1011.1 in WSW 19.3 mph 29.0 mph 81 % 0.0 in
13:12 7.9 °F 4.8 °F 1011.1 in SW 20.9 mph 30.6 mph 81 % 0.0 in
13:17 7.9 °F 4.8 °F 1011.1 in SW 30.6 mph 30.6 mph 81 % 0.0 in
13:22 8.0 °F 5.1 °F 1011.1 in SW 24.1 mph 30.6 mph 82 % 0.0 in
13:32 8.0 °F 5.1 °F 1010.7 in SW 17.7 mph 32.2 mph 82 % 0.0 in
13:37 7.9 °F 5.0 °F 1010.7 in SSW 9.7 mph 32.2 mph 82 % 0.0 in
13:47 7.9 °F 4.8 °F 1010.4 in SW 17.7 mph 32.2 mph 81 % 0.0 in
13:52 7.9 °F 4.8 °F 1010.4 in SW 20.9 mph 30.6 mph 81 % 0.0 in
13:57 7.9 °F 5.0 °F 1010.0 in SW 19.3 mph 30.6 mph 82 % 0.0 in
14:07 8.1 °F 5.0 °F 1010.0 in SW 12.9 mph 30.6 mph 81 % 0.0 in
14:12 8.1 °F 5.2 °F 1009.7 in SW 20.9 mph 30.6 mph 82 % 0.0 in
14:17 8.1 °F 5.2 °F 1009.4 in SW 16.1 mph 32.2 mph 82 % 0.0 in
14:22 8.1 °F 5.2 °F 1009.4 in SSW 16.1 mph 32.2 mph 82 % 0.0 in
14:27 8.1 °F 5.4 °F 1009.4 in SSW 12.9 mph 32.2 mph 83 % 0.0 in
14:32 8.1 °F 5.2 °F 1009.0 in SW 29.0 mph 29.0 mph 82 % 0.0 in
14:42 8.2 °F 5.1 °F 1009.0 in SW 24.1 mph 25.7 mph 81 % 0.0 in
14:47 8.1 °F 5.0 °F 1008.7 in SW 22.5 mph 38.6 mph 81 % 0.0 in
14:52 8.1 °F 5.2 °F 1008.4 in SW 22.5 mph 38.6 mph 82 % 0.0 in
14:57 8.1 °F 5.0 °F 1008.4 in SW 29.0 mph 38.6 mph 81 % 0.0 in
15:02 8.1 °F 5.2 °F 1008.4 in SW 24.1 mph 33.8 mph 82 % 0.0 in
15:12 8.0 °F 5.1 °F 1008.0 in SW 16.1 mph 33.8 mph 82 % 0.0 in
15:17 8.0 °F 4.9 °F 1008.0 in SW 16.1 mph 33.8 mph 81 % 0.0 in
15:22 7.9 °F 4.8 °F 1008.0 in SW 20.9 mph 33.8 mph 81 % 0.0 in
15:32 7.9 °F 5.0 °F 1007.7 in SW 12.9 mph 27.4 mph 82 % 0.0 in
15:42 7.8 °F 4.9 °F 1007.3 in South 11.3 mph 27.4 mph 82 % 0.0 in
15:47 7.8 °F 4.9 °F 1007.3 in SSW 9.7 mph 25.7 mph 82 % 0.0 in
15:52 7.8 °F 4.9 °F 1007.3 in South 14.5 mph 25.7 mph 82 % 0.0 in
15:57 7.8 °F 4.9 °F 1007.3 in SW 14.5 mph 25.7 mph 82 % 0.0 in
16:02 7.8 °F 4.9 °F 1007.0 in South 9.7 mph 20.9 mph 82 % 0.0 in
16:07 7.8 °F 4.7 °F 1007.0 in SSW 14.5 mph 20.9 mph 81 % 0.0 in
16:12 7.9 °F 4.8 °F 1007.0 in SSW 12.9 mph 20.9 mph 81 % 0.0 in
16:17 7.8 °F 4.7 °F 1007.0 in SSW 14.5 mph 25.7 mph 81 % 0.0 in
16:22 7.8 °F 4.7 °F 1006.7 in SSW 11.3 mph 25.7 mph 81 % 0.0 in
16:27 7.8 °F 4.7 °F 1006.7 in SSW 17.7 mph 27.4 mph 81 % 0.0 in
16:32 7.8 °F 4.7 °F 1006.7 in South 11.3 mph 27.4 mph 81 % 0.0 in
16:42 7.7 °F 4.6 °F 1006.3 in SSW 12.9 mph 29.0 mph 81 % 0.0 in
16:47 7.6 °F 4.5 °F 1006.3 in SSW 14.5 mph 29.0 mph 81 % 0.0 in
16:52 7.6 °F 4.5 °F 1006.0 in SW 16.1 mph 29.0 mph 81 % 0.0 in
16:57 7.6 °F 4.5 °F 1006.0 in SSW 9.7 mph 20.9 mph 81 % 0.0 in
17:02 7.6 °F 4.5 °F 1006.0 in SW 17.7 mph 20.9 mph 81 % 0.0 in
17:12 7.4 °F 4.4 °F 1005.6 in SSW 8.0 mph 20.9 mph 81 % 0.0 in
17:17 7.3 °F 4.3 °F 1005.6 in SSW 11.3 mph 20.9 mph 81 % 0.0 in
17:22 7.3 °F 4.3 °F 1005.3 in SSW 9.7 mph 20.9 mph 81 % 0.0 in
17:27 7.3 °F 4.4 °F 1005.3 in South 11.3 mph 20.9 mph 82 % 0.0 in
17:32 7.2 °F 4.2 °F 1005.3 in SSW 6.4 mph 20.9 mph 81 % 0.0 in
17:42 7.1 °F 4.2 °F 1005.0 in South 6.4 mph 19.3 mph 82 % 0.0 in
17:47 6.9 °F 4.0 °F 1005.0 in SSW 8.0 mph 19.3 mph 82 % 0.0 in
17:52 6.9 °F 4.0 °F 1005.0 in SSE 8.0 mph 17.7 mph 82 % 0.0 in
17:57 6.7 °F 3.8 °F 1004.6 in South 6.4 mph 17.7 mph 82 % 0.0 in
18:07 6.6 °F 3.7 °F 1004.3 in South 6.4 mph 17.7 mph 82 % 0.0 in
18:12 6.5 °F 3.8 °F 1004.3 in South 8.0 mph 17.7 mph 83 % 0.0 in
18:17 6.4 °F 3.7 °F 1003.9 in SE 8.0 mph 17.7 mph 83 % 0.0 in
18:22 6.4 °F 3.7 °F 1003.9 in South 6.4 mph 17.7 mph 83 % 0.0 in
18:32 6.3 °F 3.8 °F 1003.6 in South 4.8 mph 16.1 mph 84 % 0.0 in
18:37 6.2 °F 3.7 °F 1003.3 in SE 6.4 mph 16.1 mph 84 % 0.0 in
18:42 6.1 °F 3.6 °F 1003.3 in SSE 3.2 mph 12.9 mph 84 % 0.0 in
18:47 6.0 °F 3.5 °F 1002.9 in SSE 6.4 mph 12.9 mph 84 % 0.0 in
18:57 5.9 °F 3.4 °F 1002.9 in South 6.4 mph 12.9 mph 84 % 0.0 in
19:02 5.8 °F 3.3 °F 1002.6 in SSE 4.8 mph 12.9 mph 84 % 0.0 in
19:07 5.8 °F 3.3 °F 1002.6 in South 9.7 mph 12.9 mph 84 % 0.0 in
19:17 5.8 °F 3.3 °F 1002.3 in South 6.4 mph 16.1 mph 84 % 0.0 in
19:22 5.8 °F 3.3 °F 1002.3 in South 11.3 mph 16.1 mph 84 % 0.0 in
19:27 5.8 °F 3.3 °F 1002.3 in SW 9.7 mph 16.1 mph 84 % 0.0 in
19:32 5.8 °F 3.3 °F 1001.9 in SSE 6.4 mph 16.1 mph 84 % 0.0 in
19:42 5.8 °F 3.5 °F 1001.6 in SSW 6.4 mph 14.5 mph 85 % 0.0 in
19:47 5.8 °F 3.3 °F 1001.6 in SE 3.2 mph 14.5 mph 84 % 0.0 in
19:52 5.7 °F 3.4 °F 1001.2 in SE 6.4 mph 16.1 mph 85 % 0.0 in
19:57 5.7 °F 3.4 °F 1001.2 in SE 6.4 mph 16.1 mph 85 % 0.0 in
20:02 5.6 °F 3.3 °F 1000.9 in South 3.2 mph 14.5 mph 85 % 0.0 in
20:07 5.5 °F 3.3 °F 1000.9 in SSE 3.2 mph 14.5 mph 86 % 0.0 in
20:12 5.4 °F 3.2 °F 1000.6 in SSE 3.2 mph 11.3 mph 86 % 0.0 in
20:17 5.3 °F 3.1 °F 1000.6 in South 4.8 mph 11.3 mph 86 % 0.0 in
20:22 5.3 °F 3.1 °F 1000.2 in SE 3.2 mph 17.7 mph 86 % 0.0 in
20:27 5.3 °F 3.1 °F 999.9 in South 4.8 mph 17.7 mph 86 % 0.0 in
20:32 5.3 °F 3.1 °F 999.5 in SE 4.8 mph 17.7 mph 86 % 0.0 in
20:37 5.3 °F 3.1 °F 999.5 in SSE 9.7 mph 17.7 mph 86 % 0.0 in
20:42 5.3 °F 3.1 °F 999.2 in SE 6.4 mph 17.7 mph 86 % 0.0 in
20:47 5.3 °F 3.1 °F 999.2 in SSE 4.8 mph 17.7 mph 86 % 0.0 in
20:52 5.3 °F 3.1 °F 998.9 in SSE 3.2 mph 17.7 mph 86 % 0.0 in
20:57 5.4 °F 3.2 °F 998.5 in SE 3.2 mph 17.7 mph 86 % 0.0 in
21:07 5.4 °F 3.2 °F 998.5 in SE 11.3 mph 17.7 mph 86 % 0.0 in
21:12 5.4 °F 3.2 °F 998.5 in SSE 6.4 mph 17.7 mph 86 % 0.0 in
21:17 5.4 °F 3.2 °F 998.2 in SE 6.4 mph 17.7 mph 86 % 0.0 in
21:22 5.3 °F 3.1 °F 998.2 in SSE 8.0 mph 17.7 mph 86 % 0.0 in
21:27 5.3 °F 3.1 °F 998.2 in South 6.4 mph 17.7 mph 86 % 0.0 in
21:37 5.5 °F 3.3 °F 997.9 in South 4.8 mph 17.7 mph 86 % 0.0 in
21:42 5.6 °F 3.4 °F 997.9 in South 4.8 mph 20.9 mph 86 % 0.0 in
21:47 5.7 °F 3.4 °F 997.5 in SSW 12.9 mph 20.9 mph 85 % 0.0 in
21:52 5.7 °F 3.4 °F 997.2 in SSE 4.8 mph 20.9 mph 85 % 0.0 in
21:57 5.8 °F 3.5 °F 997.2 in South 6.4 mph 20.9 mph 85 % 0.0 in
22:02 5.8 °F 3.5 °F 996.8 in SE 9.7 mph 19.3 mph 85 % 0.0 in
22:12 6.1 °F 3.4 °F 996.5 in SSW 9.7 mph 20.9 mph 83 % 0.0 in
22:17 6.2 °F 3.5 °F 996.5 in South 12.9 mph 20.9 mph 83 % 0.0 in
22:22 6.2 °F 3.5 °F 996.5 in SE 6.4 mph 22.5 mph 83 % 0.0 in
22:27 6.2 °F 3.5 °F 996.2 in SW 11.3 mph 22.5 mph 83 % 0.0 in
22:32 6.1 °F 3.4 °F 996.2 in SSE 4.8 mph 22.5 mph 83 % 0.0 in
22:42 6.1 °F 3.4 °F 995.8 in SSE 4.8 mph 17.7 mph 83 % 0.0 in
22:47 6.1 °F 3.4 °F 995.5 in SE 8.0 mph 17.7 mph 83 % 0.0 in
22:52 6.0 °F 3.3 °F 995.5 in SSE 6.4 mph 14.5 mph 83 % 0.0 in
23:02 6.0 °F 3.3 °F 995.1 in SSE 14.5 mph 19.3 mph 83 % 0.0 in
23:07 6.0 °F 3.3 °F 995.1 in SE 6.4 mph 19.3 mph 83 % 0.0 in
23:17 5.8 °F 3.3 °F 994.8 in South 8.0 mph 20.9 mph 84 % 0.0 in
23:22 5.8 °F 3.3 °F 994.5 in South 9.7 mph 19.3 mph 84 % 0.0 in
23:27 5.8 °F 3.3 °F 994.5 in SSE 6.4 mph 19.3 mph 84 % 0.0 in
23:32 5.9 °F 3.4 °F 994.5 in SSE 6.4 mph 20.9 mph 84 % 0.0 in
23:37 5.9 °F 3.2 °F 994.1 in SSW 12.9 mph 20.9 mph 83 % 0.0 in
23:42 6.0 °F 3.3 °F 994.1 in SW 14.5 mph 20.9 mph 83 % 0.0 in
23:47 6.0 °F 3.3 °F 994.1 in SSW 8.0 mph 20.9 mph 83 % 0.0 in
23:52 6.0 °F 3.3 °F 993.8 in South 9.7 mph 19.3 mph 83 % 0.3 in
23:57 6.0 °F 3.3 °F 993.8 in South 9.7 mph 19.3 mph 83 % 0.3 in
Meteo18
Compliments of Weather Underground - 4 mb

Script developed by  Jim McMurry - jmcmurry@mwt.net Adapted for the template by  Wim van der Kuil - Leuven-Template.eu

You find our weather info also at:

European Weather Network

Weather Underground

Equipment we use:

Weather-station
Davis Vue

Weather-program
Meteobridge

Weather-server
Raspberry PI 2 B+

Provider
1 and 1

Davis Vue

Meteobridge

Raspberry PI 2 B+

1 and 1